Main page
METAR-TAF:

METAR-TAF

Airports :

Sania Ramel Airport

Tétouan, Morocco

latitude: 35-35N, longitude: 005-20W, elevation: 10 m

Current weather observation

The report was made 45 minutes ago, at 15:00 UTC
Wind 16 kt from the East
Temperature 16°C
Humidity 82%
Pressure 1015 hPa
Visibility 10 km or more
Scattered clouds at a height of 1600 ft
Scattered clouds at a height of 4000 ft

METAR: GMTN 281500Z 10016KT 9999 SCT016 SCT040 16/13 Q1015 NOSIG

Time: 16:45 (15:45 UTC)


TAF: missing

Weather observations and forecasts of more than 4000 airports (METAR and TAF reports).

The available stations are represented by yellow and red dots on the map.

Hover mouse over dot to see the name of the station.

Then click to see weather observations and forecasts.

To change the map : click on the green buttons with a black cross to zoom in, on the green button with a dash to zoom out, or on the green arrows for adjacent maps.


METAR-TAF: